createdAt,value
2018-12-12T00:01:36.497Z,6.20
2018-12-12T00:04:05.319Z,6.30
2018-12-12T00:06:33.573Z,6.20
2018-12-12T00:09:01.856Z,6.30
2018-12-12T00:11:30.103Z,6.30
2018-12-12T00:13:58.356Z,6.30
2018-12-12T00:16:26.988Z,6.30
2018-12-12T00:18:55.238Z,6.30
2018-12-12T00:21:23.494Z,6.30
2018-12-12T00:23:51.774Z,6.30
2018-12-12T00:26:20.021Z,6.40
2018-12-12T00:28:48.274Z,6.50
2018-12-12T00:31:16.552Z,6.50
2018-12-12T00:33:44.950Z,6.40
2018-12-12T00:36:13.215Z,6.40
2018-12-12T00:38:41.798Z,6.40
2018-12-12T00:41:10.064Z,6.40
2018-12-12T00:43:38.314Z,6.30
2018-12-12T00:46:06.596Z,6.30
2018-12-12T00:48:34.847Z,6.30
2018-12-12T00:51:03.094Z,6.30
2018-12-12T00:53:31.734Z,6.30
2018-12-12T00:56:00.090Z,6.30
2018-12-12T00:58:28.338Z,6.40
2018-12-12T01:00:56.900Z,6.40
2018-12-12T01:03:25.176Z,6.50
2018-12-12T01:05:53.682Z,6.50
2018-12-12T01:08:21.958Z,6.40
2018-12-12T01:10:52.194Z,6.40
2018-12-12T01:13:20.452Z,6.50
2018-12-12T01:15:48.730Z,6.50
2018-12-12T01:18:16.988Z,6.40
2018-12-12T01:20:45.374Z,6.40
2018-12-12T01:23:13.843Z,6.40
2018-12-12T01:25:42.094Z,6.30
2018-12-12T01:28:10.442Z,6.30
2018-12-12T01:30:38.714Z,6.30
2018-12-12T01:33:06.964Z,6.40
2018-12-12T01:35:35.220Z,6.40
2018-12-12T01:38:03.505Z,6.50
2018-12-12T01:40:31.753Z,6.50
2018-12-12T01:43:00.174Z,6.50
2018-12-12T01:45:28.954Z,6.40
2018-12-12T01:47:57.208Z,6.40
2018-12-12T01:50:25.459Z,6.40
2018-12-12T01:52:53.731Z,6.50
2018-12-12T01:55:21.986Z,6.40
2018-12-12T01:57:50.240Z,6.40
2018-12-12T02:00:18.811Z,6.40
2018-12-12T02:02:47.068Z,6.50
2018-12-12T02:05:15.330Z,6.50
2018-12-12T02:07:43.982Z,6.50
2018-12-12T02:10:12.318Z,6.50
2018-12-12T02:12:40.570Z,6.60
2018-12-12T02:15:09.195Z,6.60
2018-12-12T02:17:37.447Z,6.60
2018-12-12T02:20:06.283Z,6.50
2018-12-12T02:22:34.546Z,6.50
2018-12-12T02:25:03.079Z,6.40
2018-12-12T02:27:31.343Z,6.30
2018-12-12T02:29:59.893Z,6.30
2018-12-12T02:32:28.135Z,6.40
2018-12-12T02:34:56.395Z,6.40
2018-12-12T02:37:24.679Z,6.50
2018-12-12T02:39:52.941Z,6.50
2018-12-12T02:42:21.270Z,6.50
2018-12-12T02:44:49.550Z,6.50
2018-12-12T02:47:17.803Z,6.50
2018-12-12T02:49:46.051Z,6.50
2018-12-12T02:52:14.611Z,6.40
2018-12-12T02:54:42.839Z,6.40
2018-12-12T02:57:11.098Z,6.40
2018-12-12T02:59:39.382Z,6.30
2018-12-12T03:02:07.640Z,6.30
2018-12-12T03:04:35.890Z,6.30
2018-12-12T03:07:04.653Z,6.20
2018-12-12T03:09:33.448Z,6.10
2018-12-12T03:12:01.720Z,6.10
2018-12-12T03:14:30.239Z,6.20
2018-12-12T03:16:58.493Z,6.20
2018-12-12T03:19:26.750Z,6.30
2018-12-12T03:21:55.035Z,6.30
2018-12-12T03:24:23.287Z,6.40
2018-12-12T03:26:51.540Z,6.40
2018-12-12T03:29:19.817Z,6.40
2018-12-12T03:31:48.270Z,6.40
2018-12-12T03:34:16.516Z,6.40
2018-12-12T03:36:45.102Z,6.40
2018-12-12T03:39:13.350Z,6.30
2018-12-12T03:41:41.605Z,6.40
2018-12-12T03:44:09.910Z,6.40
2018-12-12T03:46:38.265Z,6.40
2018-12-12T03:49:06.510Z,6.40
2018-12-12T03:51:34.791Z,6.40
2018-12-12T03:54:03.235Z,6.30
2018-12-12T03:56:31.499Z,6.20
2018-12-12T03:59:00.051Z,6.30
2018-12-12T04:01:28.306Z,6.20
2018-12-12T04:03:56.564Z,6.20
2018-12-12T04:06:25.015Z,6.20
2018-12-12T04:08:53.370Z,6.20
2018-12-12T04:11:21.747Z,6.20
2018-12-12T04:13:50.025Z,6.10
2018-12-12T04:16:18.660Z,6.10
2018-12-12T04:18:47.295Z,6.10
2018-12-12T04:21:15.954Z,6.10
2018-12-12T04:23:44.205Z,6.10
2018-12-12T04:26:12.450Z,6.10
2018-12-12T04:28:40.736Z,6.10
2018-12-12T04:31:08.992Z,6.10
2018-12-12T04:33:37.317Z,6.10
2018-12-12T04:36:05.866Z,6.20
2018-12-12T04:38:34.129Z,6.20
2018-12-12T04:41:02.482Z,6.10
2018-12-12T04:43:31.146Z,6.10
2018-12-12T04:45:59.415Z,6.10
2018-12-12T04:48:27.663Z,6.10
2018-12-12T04:50:55.938Z,6.20
2018-12-12T04:53:24.193Z,6.20
2018-12-12T04:55:52.446Z,6.30
2018-12-12T04:58:20.722Z,6.30
2018-12-12T05:00:49.080Z,6.30
2018-12-12T05:03:17.374Z,6.30
2018-12-12T05:05:46.246Z,6.20
2018-12-12T05:08:14.479Z,6.20
2018-12-12T05:10:42.839Z,6.20
2018-12-12T05:13:11.642Z,6.10
2018-12-12T05:15:39.901Z,6.10
2018-12-12T05:18:08.158Z,6.10
2018-12-12T05:20:36.439Z,6.10
2018-12-12T05:23:04.702Z,6.00
2018-12-12T05:25:32.959Z,6.00
2018-12-12T05:28:01.553Z,6.10
2018-12-12T05:30:29.802Z,6.20
2018-12-12T05:32:58.062Z,6.20
2018-12-12T05:35:26.335Z,6.20
2018-12-12T05:37:54.594Z,6.30
2018-12-12T05:40:23.556Z,6.20
2018-12-12T05:42:51.827Z,6.20
2018-12-12T05:45:20.935Z,6.20
2018-12-12T05:47:49.200Z,6.40
2018-12-12T05:50:17.898Z,6.40
2018-12-12T05:52:46.155Z,6.30
2018-12-12T05:55:14.418Z,6.20
2018-12-12T05:57:42.698Z,6.30
2018-12-12T06:00:12.954Z,6.30
2018-12-12T06:02:41.212Z,6.30
2018-12-12T06:05:09.500Z,6.30
2018-12-12T06:07:37.751Z,6.30
2018-12-12T06:10:06.930Z,6.20
2018-12-12T06:12:35.451Z,6.20
2018-12-12T06:15:04.342Z,6.20
2018-12-12T06:17:32.595Z,6.20
2018-12-12T06:20:01.374Z,6.20
2018-12-12T06:22:37.349Z,6.20
2018-12-12T06:25:01.254Z,6.20
2018-12-12T06:27:29.699Z,6.10
2018-12-12T06:29:57.972Z,6.10
2018-12-12T06:32:26.225Z,6.20
2018-12-12T06:34:56.124Z,6.10
2018-12-12T06:37:24.374Z,6.10
2018-12-12T06:39:52.626Z,6.10
2018-12-12T06:42:20.905Z,6.10
2018-12-12T06:44:49.150Z,6.10
2018-12-12T06:47:17.410Z,6.20
2018-12-12T06:49:45.753Z,6.10
2018-12-12T06:52:13.990Z,6.10
2018-12-12T06:54:42.283Z,6.10
2018-12-12T06:57:10.891Z,6.10
2018-12-12T06:59:39.142Z,6.10
2018-12-12T07:02:07.406Z,6.30
2018-12-12T07:04:35.694Z,6.30
2018-12-12T07:07:04.833Z,6.20
2018-12-12T07:09:33.099Z,6.10
2018-12-12T07:12:01.460Z,6.10
2018-12-12T07:14:29.762Z,6.00
2018-12-12T07:16:58.482Z,6.00
2018-12-12T07:19:26.846Z,6.00
2018-12-12T07:21:55.111Z,6.20
2018-12-12T07:24:23.575Z,6.20
2018-12-12T07:26:51.868Z,6.10
2018-12-12T07:29:20.131Z,6.00
2018-12-12T07:31:48.383Z,6.10
2018-12-12T07:34:16.749Z,6.20
2018-12-12T07:36:44.998Z,6.20
2018-12-12T07:39:17.922Z,6.30
2018-12-12T07:41:43.869Z,6.30
2018-12-12T07:44:12.122Z,6.40
2018-12-12T07:46:40.663Z,6.50
2018-12-12T07:49:09.122Z,6.40
2018-12-12T07:51:37.385Z,6.50
2018-12-12T07:54:05.680Z,6.40
2018-12-12T07:56:33.959Z,6.30
2018-12-12T07:59:02.320Z,6.40
2018-12-12T08:01:30.555Z,6.50
2018-12-12T08:03:59.283Z,6.40
2018-12-12T08:06:27.534Z,6.40
2018-12-12T08:08:55.790Z,6.30
2018-12-12T08:11:24.068Z,6.30
2018-12-12T08:13:52.350Z,6.40
2018-12-12T08:16:20.990Z,6.50
2018-12-12T08:18:49.919Z,6.50
2018-12-12T08:21:18.162Z,6.50
2018-12-12T08:23:46.422Z,6.50
2018-12-12T08:26:15.109Z,6.50
2018-12-12T08:28:43.342Z,6.50
2018-12-12T08:31:11.674Z,6.40
2018-12-12T08:33:39.983Z,6.40
2018-12-12T08:36:08.238Z,6.40
2018-12-12T08:38:36.829Z,6.40
2018-12-12T08:41:05.462Z,6.50
2018-12-12T08:43:33.721Z,6.50
2018-12-12T08:46:02.113Z,6.40
2018-12-12T08:48:30.539Z,6.40
2018-12-12T08:50:58.799Z,6.30
2018-12-12T08:53:27.046Z,6.30
2018-12-12T08:55:55.337Z,6.40
2018-12-12T08:58:23.593Z,6.40
2018-12-12T09:00:52.158Z,6.40
2018-12-12T09:03:20.434Z,6.50
2018-12-12T09:05:49.166Z,6.60
2018-12-12T09:08:17.430Z,6.60
2018-12-12T09:10:46.093Z,6.60
2018-12-12T09:13:15.433Z,6.70
2018-12-12T09:15:44.106Z,6.70
2018-12-12T09:18:12.406Z,6.80
2018-12-12T09:20:40.906Z,6.80
2018-12-12T09:23:09.166Z,6.60
2018-12-12T09:25:37.590Z,6.60
2018-12-12T09:28:05.830Z,6.70
2018-12-12T09:30:34.102Z,6.80
2018-12-12T09:33:03.686Z,7.10
2018-12-12T09:35:32.037Z,7.30
2018-12-12T09:38:00.282Z,7.60
2018-12-12T09:40:28.558Z,8.00
2018-12-12T09:42:57.020Z,8.20
2018-12-12T09:45:25.270Z,8.10
2018-12-12T09:47:53.550Z,7.90
2018-12-12T09:50:22.091Z,7.70
2018-12-12T09:52:50.347Z,7.70
2018-12-12T09:55:18.867Z,8.10
2018-12-12T09:57:47.135Z,8.50
2018-12-12T10:00:15.387Z,8.90
2018-12-12T10:02:43.679Z,9.30
2018-12-12T10:05:11.934Z,9.60
2018-12-12T10:07:40.190Z,9.90
2018-12-12T10:10:08.465Z,10.10
2018-12-12T10:12:36.726Z,10.10
2018-12-12T10:15:05.971Z,10.00
2018-12-12T10:17:34.525Z,9.70
2018-12-12T10:20:03.539Z,9.80
2018-12-12T10:22:31.855Z,9.80
2018-12-12T10:25:00.254Z,9.80
2018-12-12T10:27:28.718Z,10.10
2018-12-12T10:29:56.978Z,10.50
2018-12-12T10:32:25.391Z,10.50
2018-12-12T10:34:53.668Z,10.60
2018-12-12T10:37:21.919Z,11.00
2018-12-12T10:39:50.553Z,11.30
2018-12-12T10:42:18.806Z,11.30
2018-12-12T10:44:47.139Z,11.20
2018-12-12T10:47:15.466Z,11.00
2018-12-12T10:49:43.751Z,10.80
2018-12-12T10:52:12.014Z,11.10
2018-12-12T10:54:40.462Z,11.20
2018-12-12T10:57:08.724Z,11.00
2018-12-12T10:59:36.986Z,11.30
2018-12-12T11:02:11.196Z,11.70
2018-12-12T11:04:39.454Z,11.60
2018-12-12T11:07:07.870Z,11.70
2018-12-12T11:09:37.079Z,12.30
2018-12-12T11:12:05.347Z,13.00
2018-12-12T11:14:33.607Z,13.00
2018-12-12T11:17:01.902Z,12.50
2018-12-12T11:19:30.182Z,11.80
2018-12-12T11:21:58.447Z,11.30
2018-12-12T11:24:27.487Z,10.80
2018-12-12T11:26:55.820Z,10.60
2018-12-12T11:29:24.269Z,10.40
2018-12-12T11:31:52.566Z,10.20
2018-12-12T11:34:20.830Z,10.10
2018-12-12T11:36:49.093Z,10.50
2018-12-12T11:39:17.375Z,11.50
2018-12-12T11:41:45.647Z,12.40
2018-12-12T11:44:13.921Z,13.30
2018-12-12T11:46:42.378Z,14.10
2018-12-12T11:49:10.812Z,14.60
2018-12-12T11:51:39.094Z,14.40
2018-12-12T11:54:07.360Z,14.10
2018-12-12T11:56:35.618Z,13.90
2018-12-12T11:59:03.889Z,13.60
2018-12-12T12:01:32.198Z,14.00
2018-12-12T12:04:00.494Z,14.60
2018-12-12T12:06:28.750Z,15.20
2018-12-12T12:08:57.439Z,15.60
2018-12-12T12:11:25.715Z,15.80
2018-12-12T12:13:53.970Z,16.00
2018-12-12T12:16:22.266Z,15.80
2018-12-12T12:18:50.521Z,15.20
2018-12-12T12:21:18.778Z,14.50
2018-12-12T12:23:47.070Z,13.90
2018-12-12T12:26:16.114Z,13.30
2018-12-12T12:28:44.386Z,12.70
2018-12-12T12:31:13.874Z,12.30
2018-12-12T12:33:42.573Z,12.10
2018-12-12T12:36:10.861Z,12.00
2018-12-12T12:38:39.155Z,11.90
2018-12-12T12:41:07.410Z,11.90
2018-12-12T12:43:35.669Z,11.80
2018-12-12T12:46:04.149Z,11.60
2018-12-12T12:48:32.453Z,11.50
2018-12-12T12:51:00.710Z,11.40
2018-12-12T12:53:30.451Z,11.30
2018-12-12T12:55:58.747Z,11.20
2018-12-12T12:58:27.014Z,11.20
2018-12-12T13:00:55.375Z,11.20
2018-12-12T13:03:23.652Z,11.20
2018-12-12T13:05:51.902Z,11.10
2018-12-12T13:08:20.421Z,11.10
2018-12-12T13:10:48.744Z,11.00
2018-12-12T13:13:17.510Z,11.00
2018-12-12T13:15:46.334Z,10.90
2018-12-12T13:18:14.707Z,10.70
2018-12-12T13:20:42.950Z,10.70
2018-12-12T13:23:11.242Z,10.60
2018-12-12T13:25:39.511Z,10.50
2018-12-12T13:28:08.002Z,10.40
2018-12-12T13:30:36.278Z,10.30
2018-12-12T13:33:04.843Z,10.20
2018-12-12T13:35:33.103Z,10.20
2018-12-12T13:38:01.749Z,10.10
2018-12-12T13:40:30.015Z,10.10
2018-12-12T13:42:58.270Z,10.00
2018-12-12T13:45:26.583Z,9.90
2018-12-12T13:47:54.843Z,9.90
2018-12-12T13:50:23.241Z,9.80
2018-12-12T13:52:51.513Z,9.80
2018-12-12T13:55:19.841Z,9.80
2018-12-12T13:57:48.109Z,9.80
2018-12-12T14:00:16.648Z,9.80
2018-12-12T14:02:44.903Z,9.80
2018-12-12T14:05:13.362Z,9.70
2018-12-12T14:07:41.638Z,9.70
2018-12-12T14:10:09.886Z,9.60
2018-12-12T14:12:38.143Z,9.60
2018-12-12T14:15:06.498Z,9.60
2018-12-12T14:17:35.038Z,9.60
2018-12-12T14:20:03.671Z,9.60
2018-12-12T14:22:32.110Z,9.50
2018-12-12T14:25:00.370Z,9.40
2018-12-12T14:27:28.625Z,9.40
2018-12-12T14:29:57.195Z,9.30
2018-12-12T14:32:25.439Z,9.30
2018-12-12T14:34:53.694Z,9.30
2018-12-12T14:37:21.975Z,9.20
2018-12-12T14:39:50.226Z,9.20
2018-12-12T14:42:18.485Z,9.20
2018-12-12T14:44:47.477Z,9.20
2018-12-12T14:47:15.735Z,9.20
2018-12-12T14:49:43.991Z,9.10
2018-12-12T14:52:12.262Z,9.10
2018-12-12T14:54:40.528Z,9.10
2018-12-12T14:57:08.786Z,9.00
2018-12-12T14:59:37.058Z,9.00
2018-12-12T15:02:05.315Z,9.00
2018-12-12T15:04:36.023Z,8.90
2018-12-12T15:07:03.957Z,8.80
2018-12-12T15:09:32.279Z,8.80
2018-12-12T15:12:00.534Z,8.80
2018-12-12T15:14:28.819Z,8.70
2018-12-12T15:16:57.075Z,8.70
2018-12-12T15:19:25.334Z,8.60
2018-12-12T15:21:53.636Z,8.60
2018-12-12T15:24:21.865Z,8.60
2018-12-12T15:26:50.259Z,8.60
2018-12-12T15:29:19.026Z,8.60
2018-12-12T15:31:47.291Z,8.60
2018-12-12T15:34:16.510Z,8.50
2018-12-12T15:36:44.919Z,8.50
2018-12-12T15:39:13.178Z,8.50
2018-12-12T15:41:42.564Z,8.40
2018-12-12T15:44:10.845Z,8.50
2018-12-12T15:46:40.403Z,8.40
2018-12-12T15:49:10.573Z,8.40
2018-12-12T15:51:38.924Z,8.40
2018-12-12T15:54:07.226Z,8.40
2018-12-12T15:56:35.482Z,8.30
2018-12-12T15:59:03.764Z,8.30
2018-12-12T16:01:32.019Z,8.40
2018-12-12T16:04:00.266Z,8.40
2018-12-12T16:06:28.554Z,8.50
2018-12-12T16:08:56.894Z,8.40
2018-12-12T16:11:25.162Z,8.40
2018-12-12T16:13:53.578Z,8.50
2018-12-12T16:16:21.970Z,8.40
2018-12-12T16:18:50.231Z,8.40
2018-12-12T16:21:18.684Z,8.30
2018-12-12T16:23:48.107Z,8.30
2018-12-12T16:26:16.359Z,8.20
2018-12-12T16:28:45.803Z,8.10
2018-12-12T16:31:14.059Z,8.10
2018-12-12T16:33:42.527Z,8.00
2018-12-12T16:36:13.559Z,7.90
2018-12-12T16:38:41.814Z,7.90
2018-12-12T16:41:10.257Z,7.90
2018-12-12T16:43:38.542Z,7.80
2018-12-12T16:46:07.622Z,7.80
2018-12-12T16:48:35.879Z,7.70
2018-12-12T16:51:05.218Z,7.60
2018-12-12T16:53:33.477Z,7.60
2018-12-12T16:56:01.718Z,7.50
2018-12-12T16:58:30.078Z,7.60
2018-12-12T17:00:58.334Z,7.60
2018-12-12T17:03:26.777Z,7.50
2018-12-12T17:05:55.306Z,7.40
2018-12-12T17:08:23.562Z,7.40
2018-12-12T17:10:51.818Z,7.30
2018-12-12T17:13:20.142Z,7.20
2018-12-12T17:15:48.535Z,7.20
2018-12-12T17:18:16.775Z,7.20
2018-12-12T17:20:45.119Z,7.20
2018-12-12T17:23:13.459Z,7.10
2018-12-12T17:25:41.727Z,7.10
2018-12-12T17:28:10.002Z,7.00
2018-12-12T17:30:38.338Z,7.00
2018-12-12T17:33:06.697Z,6.90
2018-12-12T17:35:34.984Z,6.80
2018-12-12T17:38:03.226Z,6.80
2018-12-12T17:40:31.490Z,6.70
2018-12-12T17:42:59.827Z,6.70
2018-12-12T17:45:28.081Z,6.60
2018-12-12T17:47:56.426Z,6.60
2018-12-12T17:50:24.710Z,6.50
2018-12-12T17:52:54.055Z,6.50
2018-12-12T17:55:22.314Z,6.50
2018-12-12T17:57:50.593Z,6.50
2018-12-12T18:00:18.838Z,6.50
2018-12-12T18:02:47.263Z,6.40
2018-12-12T18:05:15.778Z,6.40
2018-12-12T18:07:44.055Z,6.40
2018-12-12T18:10:12.285Z,6.40
2018-12-12T18:12:40.814Z,6.30
2018-12-12T18:15:09.066Z,6.30
2018-12-12T18:17:37.317Z,6.30
2018-12-12T18:20:05.678Z,6.30
2018-12-12T18:22:33.928Z,6.20
2018-12-12T18:25:02.370Z,6.10
2018-12-12T18:27:30.738Z,6.00
2018-12-12T18:29:58.986Z,5.90
2018-12-12T18:32:27.239Z,5.90
2018-12-12T18:34:55.819Z,5.90
2018-12-12T18:37:24.070Z,5.70
2018-12-12T18:39:53.263Z,5.80
2018-12-12T18:42:21.578Z,5.80
2018-12-12T18:44:49.838Z,5.80
2018-12-12T18:47:18.118Z,5.80
2018-12-12T18:49:46.524Z,5.90
2018-12-12T18:52:14.781Z,6.00
2018-12-12T18:54:43.037Z,6.00
2018-12-12T18:57:11.327Z,6.10
2018-12-12T18:59:39.578Z,6.10
2018-12-12T19:02:07.843Z,6.20
2018-12-12T19:04:36.753Z,6.30
2018-12-12T19:07:05.185Z,6.30
2018-12-12T19:09:33.442Z,6.40
2018-12-12T19:12:01.978Z,6.40
2018-12-12T19:14:30.222Z,6.40
2018-12-12T19:16:58.470Z,6.40
2018-12-12T19:19:26.771Z,6.40
2018-12-12T19:21:55.055Z,6.50
2018-12-12T19:24:23.407Z,6.50
2018-12-12T19:26:51.683Z,6.50
2018-12-12T19:29:19.959Z,6.60
2018-12-12T19:31:48.211Z,6.60
2018-12-12T19:34:16.794Z,6.50
2018-12-12T19:36:45.167Z,6.50
2018-12-12T19:39:13.434Z,6.50
2018-12-12T19:41:41.733Z,6.60
2018-12-12T19:44:10.215Z,6.60
2018-12-12T19:46:38.620Z,6.60
2018-12-12T19:49:07.203Z,6.70
2018-12-12T19:51:35.454Z,6.70
2018-12-12T19:54:07.820Z,6.70
2018-12-12T19:56:36.488Z,6.80
2018-12-12T19:59:10.070Z,6.80
2018-12-12T20:01:38.426Z,6.80
2018-12-12T20:04:07.412Z,6.80
2018-12-12T20:06:37.488Z,6.70
2018-12-12T20:09:07.092Z,6.70
2018-12-12T20:11:35.339Z,6.80
2018-12-12T20:14:03.788Z,6.80
2018-12-12T20:16:33.042Z,6.70
2018-12-12T20:19:02.762Z,6.70
2018-12-12T20:21:31.403Z,6.60
2018-12-12T20:23:59.671Z,6.60
2018-12-12T20:26:28.075Z,6.60
2018-12-12T20:28:56.710Z,6.60
2018-12-12T20:31:25.103Z,6.50
2018-12-12T20:33:54.375Z,6.50
2018-12-12T20:36:22.754Z,6.50
2018-12-12T20:38:51.529Z,6.40
2018-12-12T20:41:21.999Z,6.40
2018-12-12T20:43:50.849Z,6.40
2018-12-12T20:46:19.118Z,6.40
2018-12-12T20:48:48.157Z,6.30
2018-12-12T20:51:17.638Z,6.20
2018-12-12T20:53:45.923Z,6.10
2018-12-12T20:56:14.182Z,5.90
2018-12-12T20:58:42.438Z,5.80
2018-12-12T21:01:11.247Z,5.70
2018-12-12T21:03:39.523Z,5.60
2018-12-12T21:06:08.842Z,5.60
2018-12-12T21:08:37.122Z,5.60
2018-12-12T21:11:05.378Z,5.50
2018-12-12T21:13:33.625Z,5.50
2018-12-12T21:16:05.142Z,5.50
2018-12-12T21:18:33.400Z,5.50
2018-12-12T21:21:01.836Z,5.60
2018-12-12T21:23:30.648Z,5.60
2018-12-12T21:25:59.079Z,5.60
2018-12-12T21:28:27.330Z,5.50
2018-12-12T21:30:55.631Z,5.50
2018-12-12T21:33:24.072Z,5.50
2018-12-12T21:35:52.322Z,5.50
2018-12-12T21:38:20.842Z,5.40
2018-12-12T21:40:49.111Z,5.30
2018-12-12T21:43:17.367Z,5.30
2018-12-12T21:45:45.930Z,5.20
2018-12-12T21:48:14.182Z,5.20
2018-12-12T21:50:42.430Z,5.20
2018-12-12T21:53:10.725Z,5.10
2018-12-12T21:55:38.994Z,5.00
2018-12-12T21:58:07.262Z,4.90
2018-12-12T22:00:35.562Z,4.80
2018-12-12T22:03:03.845Z,4.80
2018-12-12T22:05:32.098Z,4.70
2018-12-12T22:08:00.787Z,4.60
2018-12-12T22:10:29.150Z,4.60
2018-12-12T22:12:57.399Z,4.50
2018-12-12T22:15:25.696Z,4.50
2018-12-12T22:17:53.958Z,4.40
2018-12-12T22:20:22.219Z,4.40
2018-12-12T22:22:50.491Z,4.40
2018-12-12T22:25:18.746Z,4.40
2018-12-12T22:27:47.003Z,4.30
2018-12-12T22:30:15.423Z,4.30
2018-12-12T22:32:43.695Z,4.30
2018-12-12T22:35:11.949Z,4.20
2018-12-12T22:37:40.234Z,4.20
2018-12-12T22:40:08.846Z,4.20
2018-12-12T22:42:37.095Z,4.20
2018-12-12T22:45:05.828Z,4.10
2018-12-12T22:47:34.080Z,4.10
2018-12-12T22:50:02.433Z,4.10
2018-12-12T22:52:31.074Z,4.10
2018-12-12T22:54:59.326Z,4.00
2018-12-12T22:57:27.578Z,4.00
2018-12-12T22:59:55.861Z,4.00
2018-12-12T23:02:24.230Z,4.00
2018-12-12T23:04:52.478Z,4.00
2018-12-12T23:07:21.355Z,4.00
2018-12-12T23:09:49.834Z,3.90
2018-12-12T23:12:18.066Z,3.90
2018-12-12T23:14:46.790Z,3.90
2018-12-12T23:17:15.042Z,3.90
2018-12-12T23:19:43.299Z,3.90
2018-12-12T23:22:12.495Z,3.90
2018-12-12T23:24:40.753Z,3.90
2018-12-12T23:27:09.001Z,3.90
2018-12-12T23:29:37.284Z,4.00
2018-12-12T23:32:05.552Z,4.00
2018-12-12T23:34:33.801Z,4.10
2018-12-12T23:37:03.203Z,4.10
2018-12-12T23:39:31.459Z,4.10
2018-12-12T23:42:00.138Z,4.10
2018-12-12T23:44:28.439Z,4.10
2018-12-12T23:46:56.674Z,4.20
2018-12-12T23:49:24.934Z,4.10
2018-12-12T23:51:53.218Z,4.20
2018-12-12T23:54:21.471Z,4.30
2018-12-12T23:56:50.072Z,4.30
2018-12-12T23:59:18.846Z,4.30
